sensor_id;sensor_type;location;lat;lon;timestamp;P1;durP1;ratioP1;P2;durP2;ratioP2
17496;SDS011;62150;43.582;1.456;2022-09-29T04:32:01;0.70;;;0.70;;
17496;SDS011;62150;43.582;1.456;2022-09-29T04:34:31;0.90;;;0.90;;
17496;SDS011;62150;43.582;1.456;2022-09-29T04:36:59;1.10;;;1.00;;
17496;SDS011;62150;43.582;1.456;2022-09-29T04:39:27;1.10;;;0.93;;
17496;SDS011;62150;43.582;1.456;2022-09-29T04:41:54;0.90;;;0.90;;
17496;SDS011;62150;43.582;1.456;2022-09-29T04:44:22;0.87;;;0.87;;
17496;SDS011;62150;43.582;1.456;2022-09-29T04:46:50;1.87;;;0.90;;
17496;SDS011;62150;43.582;1.456;2022-09-29T04:49:19;1.27;;;1.00;;
17496;SDS011;62150;43.582;1.456;2022-09-29T04:51:47;1.30;;;1.00;;
17496;SDS011;62150;43.582;1.456;2022-09-29T04:54:14;1.00;;;1.00;;
17496;SDS011;62150;43.582;1.456;2022-09-29T04:56:42;0.90;;;0.90;;
17496;SDS011;62150;43.582;1.456;2022-09-29T04:59:09;0.90;;;0.90;;
17496;SDS011;62150;43.582;1.456;2022-09-29T05:01:37;0.90;;;0.90;;
17496;SDS011;62150;43.582;1.456;2022-09-29T05:04:05;0.90;;;0.90;;
17496;SDS011;62150;43.582;1.456;2022-09-29T05:06:35;0.73;;;0.73;;
17496;SDS011;62150;43.582;1.456;2022-09-29T05:09:03;0.90;;;0.90;;
17496;SDS011;62150;43.582;1.456;2022-09-29T05:11:31;1.10;;;1.00;;
17496;SDS011;62150;43.582;1.456;2022-09-29T05:13:59;1.10;;;0.97;;
17496;SDS011;62150;43.582;1.456;2022-09-29T05:16:27;0.93;;;0.80;;
17496;SDS011;62150;43.582;1.456;2022-09-29T05:18:54;1.40;;;1.07;;
17496;SDS011;62150;43.582;1.456;2022-09-29T05:21:22;1.33;;;0.90;;
17496;SDS011;62150;43.582;1.456;2022-09-29T05:23:51;0.90;;;0.90;;
17496;SDS011;62150;43.582;1.456;2022-09-29T05:26:19;1.03;;;0.80;;
17496;SDS011;62150;43.582;1.456;2022-09-29T05:28:47;0.80;;;0.80;;
17496;SDS011;62150;43.582;1.456;2022-09-29T05:31:14;0.97;;;0.93;;
17496;SDS011;62150;43.582;1.456;2022-09-29T05:33:43;0.90;;;0.90;;
17496;SDS011;62150;43.582;1.456;2022-09-29T05:36:11;1.00;;;1.00;;
17496;SDS011;62150;43.582;1.456;2022-09-29T05:38:39;0.90;;;0.90;;
17496;SDS011;62150;43.582;1.456;2022-09-29T05:41:08;0.90;;;0.90;;
17496;SDS011;62150;43.582;1.456;2022-09-29T05:43:37;0.70;;;0.70;;
17496;SDS011;62150;43.582;1.456;2022-09-29T05:46:06;1.83;;;0.93;;
17496;SDS011;62150;43.582;1.456;2022-09-29T05:48:35;0.93;;;0.93;;
17496;SDS011;62150;43.582;1.456;2022-09-29T05:51:05;1.13;;;1.10;;
17496;SDS011;62150;43.582;1.456;2022-09-29T05:53:34;1.00;;;1.00;;
17496;SDS011;62150;43.582;1.456;2022-09-29T05:56:05;1.17;;;1.07;;
17496;SDS011;62150;43.582;1.456;2022-09-29T05:58:36;1.43;;;0.90;;
17496;SDS011;62150;43.582;1.456;2022-09-29T06:01:04;1.10;;;1.00;;
17496;SDS011;62150;43.582;1.456;2022-09-29T06:03:32;1.10;;;1.00;;
17496;SDS011;62150;43.582;1.456;2022-09-29T06:06:04;1.73;;;1.10;;
17496;SDS011;62150;43.582;1.456;2022-09-29T06:08:35;1.33;;;1.13;;
17496;SDS011;62150;43.582;1.456;2022-09-29T06:11:04;1.17;;;1.10;;
17496;SDS011;62150;43.582;1.456;2022-09-29T06:13:36;1.00;;;0.90;;
17496;SDS011;62150;43.582;1.456;2022-09-29T06:16:04;0.97;;;0.93;;
17496;SDS011;62150;43.582;1.456;2022-09-29T06:18:32;1.23;;;0.90;;
17496;SDS011;62150;43.582;1.456;2022-09-29T06:21:00;2.27;;;0.90;;
17496;SDS011;62150;43.582;1.456;2022-09-29T06:23:29;0.97;;;0.97;;
17496;SDS011;62150;43.582;1.456;2022-09-29T06:25:57;1.20;;;0.90;;
17496;SDS011;62150;43.582;1.456;2022-09-29T06:28:26;1.00;;;1.00;;
17496;SDS011;62150;43.582;1.456;2022-09-29T06:30:58;1.53;;;1.00;;
17496;SDS011;62150;43.582;1.456;2022-09-29T06:33:27;0.90;;;0.90;;
17496;SDS011;62150;43.582;1.456;2022-09-29T06:35:55;1.00;;;1.00;;
17496;SDS011;62150;43.582;1.456;2022-09-29T06:38:41;1.53;;;0.90;;
17496;SDS011;62150;43.582;1.456;2022-09-29T06:41:09;1.00;;;0.80;;
17496;SDS011;62150;43.582;1.456;2022-09-29T06:43:37;0.97;;;0.80;;
17496;SDS011;62150;43.582;1.456;2022-09-29T06:46:06;1.00;;;0.90;;
17496;SDS011;62150;43.582;1.456;2022-09-29T06:48:33;1.90;;;0.83;;
17496;SDS011;62150;43.582;1.456;2022-09-29T06:51:01;2.53;;;1.10;;
17496;SDS011;62150;43.582;1.456;2022-09-29T06:53:32;1.23;;;0.90;;
17496;SDS011;62150;43.582;1.456;2022-09-29T06:56:01;0.80;;;0.80;;
17496;SDS011;62150;43.582;1.456;2022-09-29T06:58:28;1.50;;;0.90;;
17496;SDS011;62150;43.582;1.456;2022-09-29T07:00:58;2.60;;;1.10;;
17496;SDS011;62150;43.582;1.456;2022-09-29T07:03:28;0.90;;;0.90;;
17496;SDS011;62150;43.582;1.456;2022-09-29T07:05:59;1.10;;;1.10;;
17496;SDS011;62150;43.582;1.456;2022-09-29T07:08:28;1.00;;;0.90;;
17496;SDS011;62150;43.582;1.456;2022-09-29T07:10:56;1.77;;;1.10;;
17496;SDS011;62150;43.582;1.456;2022-09-29T07:13:24;1.20;;;1.10;;
17496;SDS011;62150;43.582;1.456;2022-09-29T07:15:51;1.57;;;1.10;;
17496;SDS011;62150;43.582;1.456;2022-09-29T07:18:19;1.57;;;1.00;;
17496;SDS011;62150;43.582;1.456;2022-09-29T07:20:52;0.90;;;0.90;;
17496;SDS011;62150;43.582;1.456;2022-09-29T07:23:21;2.23;;;1.10;;
17496;SDS011;62150;43.582;1.456;2022-09-29T07:25:49;1.00;;;0.90;;
17496;SDS011;62150;43.582;1.456;2022-09-29T07:28:17;1.13;;;0.90;;
17496;SDS011;62150;43.582;1.456;2022-09-29T07:30:44;2.03;;;1.00;;
17496;SDS011;62150;43.582;1.456;2022-09-29T07:33:12;1.53;;;1.10;;
17496;SDS011;62150;43.582;1.456;2022-09-29T07:35:40;1.10;;;1.00;;
17496;SDS011;62150;43.582;1.456;2022-09-29T07:38:09;1.60;;;1.00;;
17496;SDS011;62150;43.582;1.456;2022-09-29T07:40:37;1.03;;;0.90;;
17496;SDS011;62150;43.582;1.456;2022-09-29T07:43:04;1.73;;;1.20;;
17496;SDS011;62150;43.582;1.456;2022-09-29T07:45:32;1.83;;;1.10;;
17496;SDS011;62150;43.582;1.456;2022-09-29T07:48:00;0.90;;;0.90;;
17496;SDS011;62150;43.582;1.456;2022-09-29T07:50:27;1.17;;;1.00;;
17496;SDS011;62150;43.582;1.456;2022-09-29T07:52:55;0.90;;;0.90;;
17496;SDS011;62150;43.582;1.456;2022-09-29T07:55:24;1.00;;;1.00;;
17496;SDS011;62150;43.582;1.456;2022-09-29T07:57:52;0.90;;;0.90;;
17496;SDS011;62150;43.582;1.456;2022-09-29T08:00:20;1.10;;;1.00;;
17496;SDS011;62150;43.582;1.456;2022-09-29T08:02:48;1.03;;;1.00;;
17496;SDS011;62150;43.582;1.456;2022-09-29T08:05:15;1.10;;;1.00;;
17496;SDS011;62150;43.582;1.456;2022-09-29T08:07:43;2.17;;;1.10;;
17496;SDS011;62150;43.582;1.456;2022-09-29T08:10:16;1.33;;;0.93;;
17496;SDS011;62150;43.582;1.456;2022-09-29T08:12:45;1.30;;;1.20;;
17496;SDS011;62150;43.582;1.456;2022-09-29T08:15:12;1.83;;;1.10;;
17496;SDS011;62150;43.582;1.456;2022-09-29T08:17:40;0.90;;;0.90;;
17496;SDS011;62150;43.582;1.456;2022-09-29T08:20:08;1.10;;;1.00;;
17496;SDS011;62150;43.582;1.456;2022-09-29T08:25:07;1.10;;;1.00;;
17496;SDS011;62150;43.582;1.456;2022-09-29T08:27:35;2.30;;;1.10;;
17496;SDS011;62150;43.582;1.456;2022-09-29T08:30:04;1.30;;;1.20;;
17496;SDS011;62150;43.582;1.456;2022-09-29T08:32:34;1.30;;;1.13;;
17496;SDS011;62150;43.582;1.456;2022-09-29T08:35:02;1.20;;;1.10;;
17496;SDS011;62150;43.582;1.456;2022-09-29T08:37:30;1.83;;;1.20;;
17496;SDS011;62150;43.582;1.456;2022-09-29T08:39:57;1.10;;;1.10;;
17496;SDS011;62150;43.582;1.456;2022-09-29T08:42:27;2.10;;;1.20;;
17496;SDS011;62150;43.582;1.456;2022-09-29T08:45:05;2.13;;;1.10;;
17496;SDS011;62150;43.582;1.456;2022-09-29T08:47:39;0.90;;;0.90;;
17496;SDS011;62150;43.582;1.456;2022-09-29T08:50:10;1.83;;;1.30;;
17496;SDS011;62150;43.582;1.456;2022-09-29T08:52:42;1.47;;;1.10;;
17496;SDS011;62150;43.582;1.456;2022-09-29T08:55:20;1.27;;;1.13;;
17496;SDS011;62150;43.582;1.456;2022-09-29T08:57:54;2.23;;;1.10;;
17496;SDS011;62150;43.582;1.456;2022-09-29T09:00:28;1.20;;;1.10;;
17496;SDS011;62150;43.582;1.456;2022-09-29T09:06:22;1.73;;;1.10;;
17496;SDS011;62150;43.582;1.456;2022-09-29T09:09:09;1.77;;;1.20;;
17496;SDS011;62150;43.582;1.456;2022-09-29T09:18:20;1.37;;;1.00;;
17496;SDS011;62150;43.582;1.456;2022-09-29T09:20:58;0.90;;;0.90;;
17496;SDS011;62150;43.582;1.456;2022-09-29T09:23:35;1.93;;;1.10;;
17496;SDS011;62150;43.582;1.456;2022-09-29T09:26:14;2.83;;;1.20;;
17496;SDS011;62150;43.582;1.456;2022-09-29T09:28:44;2.67;;;1.00;;
17496;SDS011;62150;43.582;1.456;2022-09-29T09:31:19;1.20;;;1.10;;
17496;SDS011;62150;43.582;1.456;2022-09-29T09:33:55;1.20;;;1.10;;
17496;SDS011;62150;43.582;1.456;2022-09-29T09:36:28;1.63;;;1.10;;
17496;SDS011;62150;43.582;1.456;2022-09-29T09:39:01;1.00;;;1.00;;
17496;SDS011;62150;43.582;1.456;2022-09-29T09:41:32;1.60;;;1.10;;
17496;SDS011;62150;43.582;1.456;2022-09-29T09:44:04;1.17;;;1.10;;
17496;SDS011;62150;43.582;1.456;2022-09-29T09:46:41;1.23;;;1.10;;
17496;SDS011;62150;43.582;1.456;2022-09-29T09:49:15;1.20;;;1.00;;
17496;SDS011;62150;43.582;1.456;2022-09-29T09:51:48;2.63;;;1.23;;
17496;SDS011;62150;43.582;1.456;2022-09-29T09:54:24;1.30;;;1.20;;
17496;SDS011;62150;43.582;1.456;2022-09-29T09:57:06;1.50;;;1.10;;
17496;SDS011;62150;43.582;1.456;2022-09-29T09:59:58;1.33;;;1.20;;
17496;SDS011;62150;43.582;1.456;2022-09-29T10:02:34;2.80;;;1.20;;
17496;SDS011;62150;43.582;1.456;2022-09-29T10:05:11;1.80;;;1.23;;
17496;SDS011;62150;43.582;1.456;2022-09-29T10:07:41;0.90;;;0.90;;
17496;SDS011;62150;43.582;1.456;2022-09-29T10:10:15;1.05;;;1.00;;
17496;SDS011;62150;43.582;1.456;2022-09-29T10:12:46;1.70;;;1.10;;
17496;SDS011;62150;43.582;1.456;2022-09-29T10:15:32;1.45;;;1.20;;
17496;SDS011;62150;43.582;1.456;2022-09-29T10:18:09;1.80;;;1.23;;
17496;SDS011;62150;43.582;1.456;2022-09-29T10:20:43;1.53;;;1.20;;
17496;SDS011;62150;43.582;1.456;2022-09-29T10:23:18;1.33;;;1.20;;
17496;SDS011;62150;43.582;1.456;2022-09-29T10:25:57;1.20;;;1.10;;
17496;SDS011;62150;43.582;1.456;2022-09-29T10:28:28;1.53;;;1.33;;
17496;SDS011;62150;43.582;1.456;2022-09-29T10:31:14;1.57;;;1.10;;
17496;SDS011;62150;43.582;1.456;2022-09-29T10:33:54;3.17;;;1.27;;
17496;SDS011;62150;43.582;1.456;2022-09-29T10:36:25;1.58;;;1.15;;
17496;SDS011;62150;43.582;1.456;2022-09-29T10:38:54;2.53;;;1.20;;
17496;SDS011;62150;43.582;1.456;2022-09-29T10:41:22;1.10;;;1.10;;
17496;SDS011;62150;43.582;1.456;2022-09-29T10:43:50;1.65;;;1.23;;
17496;SDS011;62150;43.582;1.456;2022-09-29T10:46:37;1.87;;;1.00;;
17496;SDS011;62150;43.582;1.456;2022-09-29T10:49:16;1.17;;;1.07;;
17496;SDS011;62150;43.582;1.456;2022-09-29T10:51:57;1.63;;;1.10;;
17496;SDS011;62150;43.582;1.456;2022-09-29T10:54:35;1.30;;;1.17;;
17496;SDS011;62150;43.582;1.456;2022-09-29T10:57:11;1.57;;;1.07;;
17496;SDS011;62150;43.582;1.456;2022-09-29T10:59:45;1.30;;;1.20;;
17496;SDS011;62150;43.582;1.456;2022-09-29T11:02:16;1.95;;;1.30;;
17496;SDS011;62150;43.582;1.456;2022-09-29T11:04:50;1.30;;;1.20;;
17496;SDS011;62150;43.582;1.456;2022-09-29T11:07:22;2.10;;;1.30;;
17496;SDS011;62150;43.582;1.456;2022-09-29T11:09:50;1.20;;;1.10;;
17496;SDS011;62150;43.582;1.456;2022-09-29T11:12:26;1.00;;;1.00;;
17496;SDS011;62150;43.582;1.456;2022-09-29T11:14:57;1.00;;;1.00;;
17496;SDS011;62150;43.582;1.456;2022-09-29T11:17:26;1.00;;;1.00;;
17496;SDS011;62150;43.582;1.456;2022-09-29T11:19:56;1.20;;;0.90;;
17496;SDS011;62150;43.582;1.456;2022-09-29T11:22:40;1.07;;;1.03;;
17496;SDS011;62150;43.582;1.456;2022-09-29T11:25:20;1.17;;;1.10;;
17496;SDS011;62150;43.582;1.456;2022-09-29T11:28:17;0.95;;;0.95;;
17496;SDS011;62150;43.582;1.456;2022-09-29T11:31:01;1.87;;;1.30;;
17496;SDS011;62150;43.582;1.456;2022-09-29T11:33:45;1.50;;;1.05;;
17496;SDS011;62150;43.582;1.456;2022-09-29T11:36:21;1.60;;;1.20;;
17496;SDS011;62150;43.582;1.456;2022-09-29T11:38:58;1.00;;;1.00;;
17496;SDS011;62150;43.582;1.456;2022-09-29T11:41:46;1.60;;;1.20;;
17496;SDS011;62150;43.582;1.456;2022-09-29T11:44:28;1.38;;;1.10;;
17496;SDS011;62150;43.582;1.456;2022-09-29T11:47:29;2.13;;;1.20;;
17496;SDS011;62150;43.582;1.456;2022-09-29T11:50:33;1.38;;;1.00;;
17496;SDS011;62150;43.582;1.456;2022-09-29T11:53:17;0.95;;;0.90;;
17496;SDS011;62150;43.582;1.456;2022-09-29T11:55:59;2.08;;;1.10;;
17496;SDS011;62150;43.582;1.456;2022-09-29T11:58:49;0.90;;;0.90;;
17496;SDS011;62150;43.582;1.456;2022-09-29T12:01:25;0.98;;;0.98;;
17496;SDS011;62150;43.582;1.456;2022-09-29T12:04:11;0.90;;;0.90;;
17496;SDS011;62150;43.582;1.456;2022-09-29T12:06:48;1.38;;;1.10;;
17496;SDS011;62150;43.582;1.456;2022-09-29T12:09:23;1.63;;;1.00;;
17496;SDS011;62150;43.582;1.456;2022-09-29T12:12:15;1.00;;;1.00;;
17496;SDS011;62150;43.582;1.456;2022-09-29T12:14:58;1.20;;;1.10;;
17496;SDS011;62150;43.582;1.456;2022-09-29T12:17:38;1.10;;;1.08;;
17496;SDS011;62150;43.582;1.456;2022-09-29T12:20:13;1.55;;;1.15;;
17496;SDS011;62150;43.582;1.456;2022-09-29T12:22:45;1.90;;;0.98;;
17496;SDS011;62150;43.582;1.456;2022-09-29T12:25:16;3.13;;;1.25;;
17496;SDS011;62150;43.582;1.456;2022-09-29T12:27:47;1.17;;;0.90;;
17496;SDS011;62150;43.582;1.456;2022-09-29T12:30:19;1.52;;;1.10;;
17496;SDS011;62150;43.582;1.456;2022-09-29T12:32:51;1.40;;;0.90;;
17496;SDS011;62150;43.582;1.456;2022-09-29T12:35:24;1.00;;;0.90;;
17496;SDS011;62150;43.582;1.456;2022-09-29T12:38:01;1.67;;;1.00;;
17496;SDS011;62150;43.582;1.456;2022-09-29T12:40:40;1.13;;;1.00;;
17496;SDS011;62150;43.582;1.456;2022-09-29T12:43:13;2.05;;;0.98;;
17496;SDS011;62150;43.582;1.456;2022-09-29T12:45:50;0.80;;;0.80;;
17496;SDS011;62150;43.582;1.456;2022-09-29T12:48:33;0.85;;;0.85;;
17496;SDS011;62150;43.582;1.456;2022-09-29T12:51:11;0.90;;;0.90;;
17496;SDS011;62150;43.582;1.456;2022-09-29T12:53:50;1.70;;;1.00;;
17496;SDS011;62150;43.582;1.456;2022-09-29T12:56:27;0.90;;;0.90;;
17496;SDS011;62150;43.582;1.456;2022-09-29T12:59:03;2.45;;;1.10;;
17496;SDS011;62150;43.582;1.456;2022-09-29T13:01:37;0.73;;;0.73;;
17496;SDS011;62150;43.582;1.456;2022-09-29T13:04:12;0.90;;;0.90;;
17496;SDS011;62150;43.582;1.456;2022-09-29T13:07:12;1.70;;;1.05;;
17496;SDS011;62150;43.582;1.456;2022-09-29T13:10:19;0.90;;;0.90;;
17496;SDS011;62150;43.582;1.456;2022-09-29T13:13:13;0.90;;;0.90;;
17496;SDS011;62150;43.582;1.456;2022-09-29T13:16:01;0.90;;;0.90;;
17496;SDS011;62150;43.582;1.456;2022-09-29T13:21:34;1.13;;;1.05;;
17496;SDS011;62150;43.582;1.456;2022-09-29T13:27:09;0.90;;;0.90;;
17496;SDS011;62150;43.582;1.456;2022-09-29T13:29:51;1.25;;;0.93;;
17496;SDS011;62150;43.582;1.456;2022-09-29T13:32:25;0.98;;;0.98;;
17496;SDS011;62150;43.582;1.456;2022-09-29T13:34:56;1.00;;;1.00;;
17496;SDS011;62150;43.582;1.456;2022-09-29T13:37:28;0.93;;;0.93;;
17496;SDS011;62150;43.582;1.456;2022-09-29T13:40:02;0.90;;;0.90;;
17496;SDS011;62150;43.582;1.456;2022-09-29T13:42:38;1.98;;;1.10;;
17496;SDS011;62150;43.582;1.456;2022-09-29T13:51:25;1.50;;;1.10;;
17496;SDS011;62150;43.582;1.456;2022-09-29T13:54:28;1.10;;;1.00;;
17496;SDS011;62150;43.582;1.456;2022-09-29T13:57:00;0.80;;;0.80;;
17496;SDS011;62150;43.582;1.456;2022-09-29T14:00:04;2.40;;;0.95;;
17496;SDS011;62150;43.582;1.456;2022-09-29T14:05:54;1.33;;;1.10;;
17496;SDS011;62150;43.582;1.456;2022-09-29T14:08:44;1.65;;;1.10;;
17496;SDS011;62150;43.582;1.456;2022-09-29T14:11:20;1.48;;;0.93;;
17496;SDS011;62150;43.582;1.456;2022-09-29T14:13:54;1.25;;;1.08;;
17496;SDS011;62150;43.582;1.456;2022-09-29T14:16:28;1.00;;;1.00;;
17496;SDS011;62150;43.582;1.456;2022-09-29T14:19:05;1.58;;;0.90;;
17496;SDS011;62150;43.582;1.456;2022-09-29T14:21:45;2.78;;;0.98;;
17496;SDS011;62150;43.582;1.456;2022-09-29T14:27:22;1.10;;;1.00;;
17496;SDS011;62150;43.582;1.456;2022-09-29T14:30:01;1.00;;;1.00;;
17496;SDS011;62150;43.582;1.456;2022-09-29T14:32:42;1.10;;;1.00;;
17496;SDS011;62150;43.582;1.456;2022-09-29T14:35:19;2.25;;;1.00;;
17496;SDS011;62150;43.582;1.456;2022-09-29T14:37:56;1.20;;;1.00;;
17496;SDS011;62150;43.582;1.456;2022-09-29T14:40:29;2.80;;;1.65;;
17496;SDS011;62150;43.582;1.456;2022-09-29T14:43:10;0.98;;;0.95;;
17496;SDS011;62150;43.582;1.456;2022-09-29T14:48:58;1.25;;;0.95;;
17496;SDS011;62150;43.582;1.456;2022-09-29T14:52:08;3.08;;;1.02;;
17496;SDS011;62150;43.582;1.456;2022-09-29T14:54:54;1.80;;;1.10;;
17496;SDS011;62150;43.582;1.456;2022-09-29T14:57:38;0.90;;;0.90;;
17496;SDS011;62150;43.582;1.456;2022-09-29T15:00:21;1.13;;;0.85;;
17496;SDS011;62150;43.582;1.456;2022-09-29T15:02:57;1.33;;;1.02;;
17496;SDS011;62150;43.582;1.456;2022-09-29T15:05:30;1.23;;;1.10;;
17496;SDS011;62150;43.582;1.456;2022-09-29T15:08:17;1.00;;;1.00;;
17496;SDS011;62150;43.582;1.456;2022-09-29T15:10:51;2.80;;;0.93;;
17496;SDS011;62150;43.582;1.456;2022-09-29T15:13:23;1.20;;;1.10;;
17496;SDS011;62150;43.582;1.456;2022-09-29T15:15:56;1.33;;;1.23;;
17496;SDS011;62150;43.582;1.456;2022-09-29T15:18:34;1.77;;;0.98;;
17496;SDS011;62150;43.582;1.456;2022-09-29T15:21:14;1.50;;;1.08;;
17496;SDS011;62150;43.582;1.456;2022-09-29T15:26:51;2.75;;;1.20;;
17496;SDS011;62150;43.582;1.456;2022-09-29T15:29:20;2.38;;;1.10;;
17496;SDS011;62150;43.582;1.456;2022-09-29T15:31:49;1.20;;;1.10;;
17496;SDS011;62150;43.582;1.456;2022-09-29T15:34:18;2.80;;;1.27;;
17496;SDS011;62150;43.582;1.456;2022-09-29T15:36:49;2.28;;;1.35;;
17496;SDS011;62150;43.582;1.456;2022-09-29T15:39:36;3.22;;;1.20;;
17496;SDS011;62150;43.582;1.456;2022-09-29T15:42:13;1.70;;;1.13;;
17496;SDS011;62150;43.582;1.456;2022-09-29T15:44:51;3.67;;;1.38;;
17496;SDS011;62150;43.582;1.456;2022-09-29T15:47:27;2.17;;;1.20;;
17496;SDS011;62150;43.582;1.456;2022-09-29T15:50:02;2.42;;;1.30;;
17496;SDS011;62150;43.582;1.456;2022-09-29T15:52:31;1.80;;;1.30;;
17496;SDS011;62150;43.582;1.456;2022-09-29T15:54:59;1.65;;;1.30;;
17496;SDS011;62150;43.582;1.456;2022-09-29T15:57:39;1.85;;;1.30;;
17496;SDS011;62150;43.582;1.456;2022-09-29T16:03:26;2.70;;;1.20;;
17496;SDS011;62150;43.582;1.456;2022-09-29T16:06:05;2.78;;;1.48;;
17496;SDS011;62150;43.582;1.456;2022-09-29T16:08:42;2.70;;;1.30;;
17496;SDS011;62150;43.582;1.456;2022-09-29T16:11:19;2.13;;;1.48;;
17496;SDS011;62150;43.582;1.456;2022-09-29T16:13:49;2.47;;;1.40;;
17496;SDS011;62150;43.582;1.456;2022-09-29T16:16:27;2.45;;;1.33;;
17496;SDS011;62150;43.582;1.456;2022-09-29T16:19:01;1.77;;;1.20;;
17496;SDS011;62150;43.582;1.456;2022-09-29T16:21:35;4.38;;;1.30;;
17496;SDS011;62150;43.582;1.456;2022-09-29T16:24:05;7.55;;;1.98;;
17496;SDS011;62150;43.582;1.456;2022-09-29T16:26:43;2.75;;;1.40;;
17496;SDS011;62150;43.582;1.456;2022-09-29T16:38:09;3.67;;;1.50;;
17496;SDS011;62150;43.582;1.456;2022-09-29T16:40:50;1.93;;;1.37;;
17496;SDS011;62150;43.582;1.456;2022-09-29T16:43:22;2.83;;;1.50;;
17496;SDS011;62150;43.582;1.456;2022-09-29T16:45:55;2.08;;;1.30;;
17496;SDS011;62150;43.582;1.456;2022-09-29T16:48:27;2.47;;;1.45;;
17496;SDS011;62150;43.582;1.456;2022-09-29T16:51:03;1.70;;;0.95;;
17496;SDS011;62150;43.582;1.456;2022-09-29T16:53:34;1.50;;;1.40;;
17496;SDS011;62150;43.582;1.456;2022-09-29T16:56:02;2.33;;;1.50;;
17496;SDS011;62150;43.582;1.456;2022-09-29T16:58:33;1.57;;;1.37;;
17496;SDS011;62150;43.582;1.456;2022-09-29T17:01:01;1.60;;;1.43;;
17496;SDS011;62150;43.582;1.456;2022-09-29T17:03:29;2.30;;;1.53;;
17496;SDS011;62150;43.582;1.456;2022-09-29T17:05:56;2.03;;;1.48;;
17496;SDS011;62150;43.582;1.456;2022-09-29T17:08:31;1.83;;;1.47;;
17496;SDS011;62150;43.582;1.456;2022-09-29T17:10:59;2.13;;;1.10;;
17496;SDS011;62150;43.582;1.456;2022-09-29T17:13:27;2.87;;;1.40;;
17496;SDS011;62150;43.582;1.456;2022-09-29T17:15:59;1.85;;;1.20;;
17496;SDS011;62150;43.582;1.456;2022-09-29T17:18:27;5.05;;;2.08;;
17496;SDS011;62150;43.582;1.456;2022-09-29T17:20:56;7.67;;;3.20;;
17496;SDS011;62150;43.582;1.456;2022-09-29T17:23:23;4.93;;;2.37;;
17496;SDS011;62150;43.582;1.456;2022-09-29T17:25:52;7.35;;;2.90;;
17496;SDS011;62150;43.582;1.456;2022-09-29T17:28:40;11.27;;;4.57;;
17496;SDS011;62150;43.582;1.456;2022-09-29T17:31:07;10.20;;;3.65;;
17496;SDS011;62150;43.582;1.456;2022-09-29T17:33:37;7.18;;;3.20;;
17496;SDS011;62150;43.582;1.456;2022-09-29T17:36:06;8.57;;;3.38;;
17496;SDS011;62150;43.582;1.456;2022-09-29T17:38:38;11.80;;;5.73;;
17496;SDS011;62150;43.582;1.456;2022-09-29T17:41:08;11.10;;;5.07;;
17496;SDS011;62150;43.582;1.456;2022-09-29T17:43:40;10.05;;;3.90;;
17496;SDS011;62150;43.582;1.456;2022-09-29T17:46:11;7.80;;;3.00;;
17496;SDS011;62150;43.582;1.456;2022-09-29T17:48:40;6.40;;;2.60;;
17496;SDS011;62150;43.582;1.456;2022-09-29T17:51:08;4.72;;;2.20;;
17496;SDS011;62150;43.582;1.456;2022-09-29T17:53:37;4.57;;;2.10;;
17496;SDS011;62150;43.582;1.456;2022-09-29T17:56:05;3.50;;;1.73;;
17496;SDS011;62150;43.582;1.456;2022-09-29T17:58:43;2.00;;;1.60;;
17496;SDS011;62150;43.582;1.456;2022-09-29T18:01:17;3.13;;;1.63;;
17496;SDS011;62150;43.582;1.456;2022-09-29T18:03:48;2.07;;;1.53;;
17496;SDS011;62150;43.582;1.456;2022-09-29T18:06:16;4.87;;;1.90;;
17496;SDS011;62150;43.582;1.456;2022-09-29T18:08:46;4.88;;;1.80;;
17496;SDS011;62150;43.582;1.456;2022-09-29T18:11:17;3.80;;;2.00;;
17496;SDS011;62150;43.582;1.456;2022-09-29T18:13:45;3.70;;;1.97;;
17496;SDS011;62150;43.582;1.456;2022-09-29T18:16:14;5.50;;;2.10;;
17496;SDS011;62150;43.582;1.456;2022-09-29T18:18:42;3.00;;;1.80;;
17496;SDS011;62150;43.582;1.456;2022-09-29T18:21:10;3.97;;;1.73;;
17496;SDS011;62150;43.582;1.456;2022-09-29T18:23:42;3.03;;;1.70;;
17496;SDS011;62150;43.582;1.456;2022-09-29T18:26:10;1.67;;;1.53;;
17496;SDS011;62150;43.582;1.456;2022-09-29T18:28:41;4.03;;;1.90;;
17496;SDS011;62150;43.582;1.456;2022-09-29T18:31:16;3.20;;;1.70;;
17496;SDS011;62150;43.582;1.456;2022-09-29T18:33:48;6.47;;;2.23;;
17496;SDS011;62150;43.582;1.456;2022-09-29T18:36:16;5.32;;;2.40;;
17496;SDS011;62150;43.582;1.456;2022-09-29T18:38:43;3.73;;;1.80;;
17496;SDS011;62150;43.582;1.456;2022-09-29T18:41:12;1.83;;;1.50;;
17496;SDS011;62150;43.582;1.456;2022-09-29T18:43:43;2.23;;;1.30;;
17496;SDS011;62150;43.582;1.456;2022-09-29T18:46:11;2.83;;;1.40;;
17496;SDS011;62150;43.582;1.456;2022-09-29T18:48:39;2.70;;;1.50;;
17496;SDS011;62150;43.582;1.456;2022-09-29T18:51:07;3.07;;;1.50;;
17496;SDS011;62150;43.582;1.456;2022-09-29T18:53:37;3.43;;;1.43;;
17496;SDS011;62150;43.582;1.456;2022-09-29T18:56:08;3.80;;;1.50;;
17496;SDS011;62150;43.582;1.456;2022-09-29T18:58:40;2.00;;;1.50;;
17496;SDS011;62150;43.582;1.456;2022-09-29T19:01:10;1.40;;;1.30;;
17496;SDS011;62150;43.582;1.456;2022-09-29T19:03:43;2.00;;;1.48;;
17496;SDS011;62150;43.582;1.456;2022-09-29T19:06:12;2.90;;;1.50;;
17496;SDS011;62150;43.582;1.456;2022-09-29T19:08:41;2.67;;;1.60;;
17496;SDS011;62150;43.582;1.456;2022-09-29T19:11:15;3.27;;;1.53;;
17496;SDS011;62150;43.582;1.456;2022-09-29T19:13:44;3.00;;;1.60;;
17496;SDS011;62150;43.582;1.456;2022-09-29T19:16:14;3.53;;;1.50;;
17496;SDS011;62150;43.582;1.456;2022-09-29T19:18:42;3.00;;;1.73;;
17496;SDS011;62150;43.582;1.456;2022-09-29T19:21:10;2.13;;;1.40;;
17496;SDS011;62150;43.582;1.456;2022-09-29T19:23:39;3.00;;;1.60;;
17496;SDS011;62150;43.582;1.456;2022-09-29T19:26:08;3.73;;;1.67;;
17496;SDS011;62150;43.582;1.456;2022-09-29T19:28:37;3.17;;;1.70;;
17496;SDS011;62150;43.582;1.456;2022-09-29T19:31:05;2.70;;;1.50;;
17496;SDS011;62150;43.582;1.456;2022-09-29T19:33:36;1.67;;;1.40;;
17496;SDS011;62150;43.582;1.456;2022-09-29T19:36:06;2.80;;;1.90;;
17496;SDS011;62150;43.582;1.456;2022-09-29T19:38:38;3.70;;;1.50;;
17496;SDS011;62150;43.582;1.456;2022-09-29T19:41:10;2.73;;;1.63;;
17496;SDS011;62150;43.582;1.456;2022-09-29T19:43:38;2.27;;;1.47;;
17496;SDS011;62150;43.582;1.456;2022-09-29T19:46:06;2.43;;;1.50;;
17496;SDS011;62150;43.582;1.456;2022-09-29T19:48:36;2.90;;;1.50;;
17496;SDS011;62150;43.582;1.456;2022-09-29T19:51:05;2.90;;;1.60;;
17496;SDS011;62150;43.582;1.456;2022-09-29T19:53:50;2.53;;;1.40;;
17496;SDS011;62150;43.582;1.456;2022-09-29T19:56:34;3.23;;;1.63;;
17496;SDS011;62150;43.582;1.456;2022-09-29T19:59:02;4.43;;;1.60;;
17496;SDS011;62150;43.582;1.456;2022-09-29T20:01:30;2.37;;;1.60;;
17496;SDS011;62150;43.582;1.456;2022-09-29T20:03:59;1.80;;;1.40;;
17496;SDS011;62150;43.582;1.456;2022-09-29T20:06:28;2.83;;;1.50;;
17496;SDS011;62150;43.582;1.456;2022-09-29T20:08:55;2.00;;;1.40;;
17496;SDS011;62150;43.582;1.456;2022-09-29T20:11:24;3.27;;;1.50;;
17496;SDS011;62150;43.582;1.456;2022-09-29T20:13:52;2.03;;;1.50;;
17496;SDS011;62150;43.582;1.456;2022-09-29T20:16:19;2.17;;;1.50;;
17496;SDS011;62150;43.582;1.456;2022-09-29T20:18:47;3.07;;;1.50;;
17496;SDS011;62150;43.582;1.456;2022-09-29T20:21:16;3.30;;;1.60;;
17496;SDS011;62150;43.582;1.456;2022-09-29T20:23:44;2.80;;;1.50;;
17496;SDS011;62150;43.582;1.456;2022-09-29T20:26:12;3.53;;;1.47;;
17496;SDS011;62150;43.582;1.456;2022-09-29T20:28:39;2.77;;;1.50;;
17496;SDS011;62150;43.582;1.456;2022-09-29T20:31:07;3.73;;;1.73;;
17496;SDS011;62150;43.582;1.456;2022-09-29T20:33:35;3.37;;;1.43;;
17496;SDS011;62150;43.582;1.456;2022-09-29T20:36:03;3.53;;;1.70;;
17496;SDS011;62150;43.582;1.456;2022-09-29T20:38:33;2.10;;;1.70;;
17496;SDS011;62150;43.582;1.456;2022-09-29T20:41:05;4.30;;;1.83;;
17496;SDS011;62150;43.582;1.456;2022-09-29T20:43:33;3.03;;;1.60;;